Time;durP1;ratioP1;P1;durP2;ratioP2;P2;SDS_P1;SDS_P2;PMS_P1;PMS_P2;Temp;Humidity;BMP_temperature;BMP_pressure;BME280_temperature;BME280_humidity;BME280_pressure;Samples;Min_cycle;Max_cycle;Signal;HPM_P1;HPM_P2
2023/09/10 00:00:37;;;;;;;6.67;6.03;;;16.60;99.90;15.90;100804;;;;585615;241;23986;-76
2023/09/10 00:03:05;;;;;;;10.07;6.70;;;16.50;99.90;15.90;100797;;;;594215;241;23975;-77
2023/09/10 00:05:33;;;;;;;8.33;5.90;;;16.50;99.90;15.80;100794;;;;585378;241;23968;-77
2023/09/10 00:08:01;;;;;;;8.77;6.03;;;16.50;99.90;15.80;100797;;;;585847;241;24036;-76
2023/09/10 00:10:29;;;;;;;7.00;6.30;;;16.50;99.90;15.70;100797;;;;585902;241;24017;-76
2023/09/10 00:12:57;;;;;;;8.27;6.03;;;16.40;99.90;15.70;100790;;;;585909;241;23950;-77
2023/09/10 00:15:24;;;;;;;8.70;6.87;;;16.40;99.90;15.60;100789;;;;586023;241;24013;-76
2023/09/10 00:17:52;;;;;;;8.67;6.13;;;16.30;99.90;15.60;100787;;;;596689;237;23965;-76
2023/09/10 00:20:24;;;;;;;8.73;6.40;;;16.20;99.90;15.50;100780;;;;587026;240;23982;-76
2023/09/10 00:22:48;;;;;;;8.73;5.77;;;16.20;99.90;15.50;100781;;;;586628;240;23954;-76
2023/09/10 00:25:17;;;;;;;6.63;5.77;;;16.10;99.90;15.40;100784;;;;586270;241;24049;-77
2023/09/10 00:27:45;;;;;;;7.27;6.57;;;16.10;99.90;15.40;100773;;;;595242;238;23949;-76
2023/09/10 00:30:13;;;;;;;7.40;6.00;;;16.10;99.90;15.40;100779;;;;586200;241;24141;-76
2023/09/10 00:32:41;;;;;;;5.40;5.00;;;16.00;99.90;15.30;100769;;;;585989;241;23994;-76
2023/09/10 00:35:09;;;;;;;9.23;5.97;;;16.00;99.90;15.30;100776;;;;585999;241;23990;-76
2023/09/10 00:37:36;;;;;;;8.03;6.27;;;16.00;99.90;15.30;100781;;;;586221;241;23986;-75
2023/09/10 00:40:05;;;;;;;6.67;6.03;;;16.00;99.90;15.30;100767;;;;586195;241;23979;-75
2023/09/10 00:42:33;;;;;;;7.73;6.67;;;15.90;99.90;15.30;100767;;;;594980;239;23970;-76
2023/09/10 00:45:03;;;;;;;6.97;6.27;;;15.90;99.90;15.30;100767;;;;586152;241;24018;-75
2023/09/10 00:47:30;;;;;;;8.43;6.23;;;15.90;99.90;15.30;100763;;;;586159;241;24016;-76
2023/09/10 00:49:58;;;;;;;6.80;6.10;;;15.90;99.90;15.30;100755;;;;586103;241;24022;-76
2023/09/10 00:52:30;;;;;;;9.80;6.10;;;15.90;99.90;15.30;100764;;;;586204;241;24023;-75
2023/09/10 00:54:54;;;;;;;8.73;6.07;;;15.90;99.90;15.30;100767;;;;584970;241;24005;-75
2023/09/10 00:57:22;;;;;;;8.18;7.37;;;15.90;99.90;15.30;100763;;;;580593;241;34305;-76
2023/09/10 00:59:50;;;;;;;7.67;6.87;;;15.90;99.90;15.20;100759;;;;585557;241;24050;-76
2023/09/10 01:02:21;;;;;;;7.13;6.43;;;15.90;99.90;15.20;100758;;;;585533;241;23991;-76
2023/09/10 01:04:46;;;;;;;8.83;6.17;;;15.90;99.90;15.30;100760;;;;584875;241;23979;-76
2023/09/10 01:07:17;;;;;;;11.00;6.27;;;15.90;99.90;15.30;100759;;;;585514;241;24007;-75
2023/09/10 01:09:42;;;;;;;7.83;6.07;;;16.00;99.90;15.30;100765;;;;585498;241;24066;-76
2023/09/10 01:12:16;;;;;;;8.57;5.87;;;16.00;99.90;15.30;100762;;;;586003;241;24033;-78
2023/09/10 01:14:46;;;;;;;7.30;5.73;;;16.00;99.90;15.30;100766;;;;594394;239;23968;-76
2023/09/10 01:17:35;;;;;;;10.30;6.37;;;16.00;99.90;15.20;100758;;;;584800;241;23994;-76
2023/09/10 01:20:18;;;;;;;7.27;6.57;;;15.80;99.90;15.20;100759;;;;585978;241;24024;-76
2023/09/10 01:23:23;;;;;;;11.07;6.83;;;15.80;99.90;15.10;100751;;;;585090;241;23959;-75
2023/09/10 01:25:54;;;;;;;15.10;6.60;;;15.80;99.90;15.10;100751;;;;594292;241;24016;-76
2023/09/10 01:28:19;;;;;;;7.03;6.00;;;15.70;99.90;15.10;100760;;;;586042;240;23976;-77
2023/09/10 01:30:47;;;;;;;7.43;6.30;;;15.80;99.90;15.10;100755;;;;586650;240;23950;-75
2023/09/10 01:33:31;;;;;;;6.67;5.97;;;15.80;99.90;15.10;100755;;;;595773;240;23989;-76
2023/09/10 01:35:59;;;;;;;14.87;6.97;;;15.80;99.90;15.20;100746;;;;586001;240;23996;-77
2023/09/10 01:38:30;;;;;;;10.47;6.80;;;15.80;99.90;15.20;100752;;;;586310;241;23998;-76
2023/09/10 01:41:03;;;;;;;9.57;7.07;;;15.80;99.90;15.20;100757;;;;586046;241;24023;-76
2023/09/10 01:43:31;;;;;;;7.43;6.50;;;15.80;99.90;15.10;100752;;;;594988;241;23959;-75
2023/09/10 01:45:59;;;;;;;7.77;6.20;;;15.80;99.90;15.10;100750;;;;586345;241;23959;-75
2023/09/10 01:48:30;;;;;;;7.73;6.90;;;15.80;99.90;15.20;100752;;;;586229;241;23945;-76
2023/09/10 01:50:55;;;;;;;14.70;7.17;;;15.80;99.90;15.20;100753;;;;586204;241;24091;-75
2023/09/10 01:53:23;;;;;;;9.70;7.00;;;15.80;99.90;15.10;100749;;;;586281;241;23998;-75
2023/09/10 01:55:51;;;;;;;8.10;6.83;;;15.80;99.90;15.10;100739;;;;585903;241;24007;-75
2023/09/10 01:58:19;;;;;;;14.73;7.00;;;15.80;99.90;15.10;100749;;;;585798;241;24016;-75
2023/09/10 02:00:47;;;;;;;9.63;7.27;;;15.70;99.90;15.00;100745;;;;586018;241;23962;-75
2023/09/10 02:03:16;;;;;;;8.10;6.03;;;15.60;99.90;15.00;100744;;;;585860;241;23976;-75
2023/09/10 02:05:44;;;;;;;8.00;7.20;;;15.60;99.90;14.90;100741;;;;585972;241;24042;-75
2023/09/10 02:08:12;;;;;;;7.80;6.93;;;15.60;99.90;14.80;100746;;;;585990;241;23966;-76
2023/09/10 02:10:40;;;;;;;12.30;7.30;;;15.50;99.90;14.80;100742;;;;585524;241;23978;-74
2023/09/10 02:13:11;;;;;;;8.20;7.10;;;15.50;99.90;14.80;100741;;;;585709;237;23968;-75
2023/09/10 02:15:35;;;;;;;9.07;7.33;;;15.40;99.90;14.70;100734;;;;585454;241;23987;-75
2023/09/10 02:18:03;;;;;;;11.77;7.30;;;15.40;99.90;14.70;100733;;;;585737;241;23995;-76
2023/09/10 02:20:34;;;;;;;11.70;7.60;;;15.40;99.90;14.70;100736;;;;585571;241;23971;-75
2023/09/10 02:23:02;;;;;;;9.93;7.40;;;15.30;99.90;14.60;100738;;;;585378;241;23975;-75
2023/09/10 02:25:30;;;;;;;15.60;9.15;;;15.30;99.90;14.60;100738;;;;580547;241;34287;-75
2023/09/10 02:27:58;;;;;;;9.20;7.83;;;15.30;99.90;14.50;100731;;;;585431;241;24014;-75
2023/09/10 02:30:26;;;;;;;9.97;7.60;;;15.20;99.90;14.50;100737;;;;594431;241;24016;-76
2023/09/10 02:32:54;;;;;;;10.67;7.80;;;15.20;99.90;14.50;100730;;;;585601;241;24010;-75
2023/09/10 02:35:22;;;;;;;16.17;8.37;;;15.10;99.90;14.40;100732;;;;585713;241;23991;-74
2023/09/10 02:37:50;;;;;;;14.73;8.57;;;15.00;99.90;14.30;100732;;;;585511;241;23967;-76
2023/09/10 02:40:17;;;;;;;15.40;8.13;;;15.00;99.90;14.30;100729;;;;586991;240;23956;-76
2023/09/10 02:42:49;;;;;;;10.27;7.13;;;14.90;99.90;14.20;100733;;;;587131;240;23959;-76
2023/09/10 02:45:13;;;;;;;10.37;7.40;;;14.90;99.90;14.20;100732;;;;586617;240;24014;-76
2023/09/10 02:47:41;;;;;;;9.83;8.07;;;14.90;99.90;14.20;100728;;;;586816;240;23983;-76
2023/09/10 02:50:09;;;;;;;11.93;7.63;;;14.80;99.90;14.10;100731;;;;586537;241;23969;-76
2023/09/10 02:52:37;;;;;;;10.83;8.03;;;14.80;99.90;14.10;100731;;;;586455;241;24032;-77
2023/09/10 02:55:09;;;;;;;10.07;7.90;;;14.80;99.90;14.10;100725;;;;586499;241;23959;-76
2023/09/10 02:57:33;;;;;;;10.03;7.70;;;14.80;99.90;14.10;100720;;;;585530;241;23972;-76
2023/09/10 03:00:01;;;;;;;10.03;8.40;;;14.70;99.90;14.00;100729;;;;585951;241;23962;-76
2023/09/10 03:02:29;;;;;;;9.50;8.20;;;14.70;99.90;14.00;100722;;;;585825;241;23955;-76
2023/09/10 03:05:01;;;;;;;12.13;9.07;;;14.70;99.90;14.00;100720;;;;586007;241;24078;-76
2023/09/10 03:07:25;;;;;;;10.60;8.33;;;14.60;99.90;14.00;100716;;;;585695;241;24000;-76
2023/09/10 03:09:52;;;;;;;10.37;7.97;;;14.60;99.90;13.90;100722;;;;586190;241;24042;-76
2023/09/10 03:12:26;;;;;;;10.77;8.23;;;14.60;99.90;13.90;100725;;;;585996;241;24064;-76
2023/09/10 03:14:55;;;;;;;10.87;8.43;;;14.60;99.90;13.90;100720;;;;585736;241;24049;-76
2023/09/10 03:17:23;;;;;;;14.93;9.50;;;14.50;99.90;13.90;100713;;;;585651;241;23960;-76
2023/09/10 03:19:52;;;;;;;13.90;8.60;;;14.50;99.90;13.80;100721;;;;585644;241;25052;-76
2023/09/10 03:22:21;;;;;;;10.20;8.70;;;14.50;99.90;13.80;100721;;;;585734;241;23962;-76
2023/09/10 03:24:49;;;;;;;10.10;8.60;;;14.50;99.90;13.80;100718;;;;585633;241;23969;-75
2023/09/10 03:27:17;;;;;;;9.90;8.43;;;14.40;99.90;13.80;100713;;;;585512;241;24011;-76
2023/09/10 03:29:45;;;;;;;10.03;9.00;;;14.40;99.90;13.80;100715;;;;585456;241;24022;-77
2023/09/10 03:32:13;;;;;;;11.33;9.20;;;14.40;99.90;13.70;100714;;;;585534;241;24003;-77
2023/09/10 03:34:42;;;;;;;11.03;8.53;;;14.40;99.90;13.70;100715;;;;585599;241;24029;-77
2023/09/10 03:37:09;;;;;;;12.70;8.60;;;14.40;99.90;13.70;100705;;;;585357;241;23971;-75
2023/09/10 03:39:37;;;;;;;13.93;8.90;;;14.30;99.90;13.70;100710;;;;585532;241;23972;-76
2023/09/10 03:42:05;;;;;;;10.30;9.30;;;14.30;99.90;13.60;100713;;;;585948;241;24039;-76
2023/09/10 03:44:33;;;;;;;12.47;8.57;;;14.30;99.90;13.60;100709;;;;586001;241;23971;-76
2023/09/10 03:47:00;;;;;;;10.57;9.33;;;14.30;99.90;13.60;100705;;;;585980;241;24014;-76
2023/09/10 03:49:28;;;;;;;13.57;9.90;;;14.30;99.90;13.60;100695;;;;585945;241;23969;-76
2023/09/10 03:51:56;;;;;;;11.37;10.17;;;14.30;99.90;13.60;100699;;;;587099;240;23972;-75
2023/09/10 03:54:24;;;;;;;18.07;11.50;;;14.30;99.90;13.60;100697;;;;586923;240;23998;-76
2023/09/10 03:56:52;;;;;;;14.23;11.40;;;14.30;99.90;13.60;100708;;;;586877;240;23973;-76
2023/09/10 03:59:20;;;;;;;13.77;10.93;;;14.30;99.90;13.70;100704;;;;595666;237;23997;-76
2023/09/10 04:01:49;;;;;;;15.97;11.27;;;14.40;99.90;13.70;100709;;;;586114;241;23962;-75
2023/09/10 04:04:17;;;;;;;11.87;10.67;;;14.40;99.90;13.70;100710;;;;586192;241;24016;-76
2023/09/10 04:06:45;;;;;;;12.17;10.80;;;14.40;99.90;13.70;100711;;;;586127;241;24054;-76
2023/09/10 04:09:13;;;;;;;13.90;11.27;;;14.40;99.90;13.70;100707;;;;585849;241;23988;-76
2023/09/10 04:11:42;;;;;;;18.73;11.93;;;14.40;99.90;13.70;100695;;;;586271;241;24008;-76
2023/09/10 04:14:11;;;;;;;16.40;11.73;;;14.40;99.90;13.70;100698;;;;586271;241;24001;-76
2023/09/10 04:16:39;;;;;;;15.43;11.73;;;14.40;99.90;13.80;100699;;;;586280;241;24014;-76
2023/09/10 04:19:08;;;;;;;13.80;12.40;;;14.50;99.90;13.90;100697;;;;586248;241;23953;-76
2023/09/10 04:21:36;;;;;;;16.23;13.27;;;14.50;99.90;13.90;100695;;;;586230;241;23955;-75
2023/09/10 04:24:05;;;;;;;15.97;12.20;;;14.60;99.90;14.00;100691;;;;586131;241;23983;-74
2023/09/10 04:26:34;;;;;;;15.10;11.27;;;14.60;99.90;14.00;100694;;;;586217;241;24093;-75
2023/09/10 04:29:02;;;;;;;15.50;11.43;;;14.60;99.90;14.00;100694;;;;585961;241;23999;-75
2023/09/10 04:31:29;;;;;;;14.47;12.33;;;14.60;99.90;14.00;100695;;;;585301;241;23992;-76
2023/09/10 04:33:57;;;;;;;16.03;11.33;;;14.70;99.90;14.00;100708;;;;585645;241;23960;-76
2023/09/10 04:36:25;;;;;;;14.57;12.10;;;14.70;99.90;14.00;100702;;;;585519;241;23996;-76
2023/09/10 04:38:54;;;;;;;17.80;11.57;;;14.70;99.90;14.10;100701;;;;585643;241;23952;-76
2023/09/10 04:41:21;;;;;;;14.77;12.40;;;14.70;99.90;14.10;100695;;;;585875;241;24088;-76
2023/09/10 04:43:52;;;;;;;14.23;12.30;;;14.80;99.90;14.20;100696;;;;585940;241;23966;-76
2023/09/10 04:46:17;;;;;;;14.23;11.73;;;14.80;99.90;14.30;100694;;;;585826;241;24051;-76
2023/09/10 04:48:46;;;;;;;14.17;12.13;;;14.90;99.90;14.40;100693;;;;586011;241;23975;-77
2023/09/10 04:51:13;;;;;;;16.07;12.77;;;15.00;99.90;14.50;100695;;;;586065;241;23983;-76
2023/09/10 04:53:42;;;;;;;12.97;11.17;;;15.10;99.90;14.60;100690;;;;586127;241;24081;-76
2023/09/10 04:56:09;;;;;;;12.03;10.73;;;15.20;99.90;14.70;100692;;;;586029;241;24021;-76
2023/09/10 04:58:37;;;;;;;13.20;11.00;;;15.20;99.90;14.70;100693;;;;585925;241;23989;-76
2023/09/10 05:01:05;;;;;;;14.23;11.37;;;15.40;99.90;14.80;100694;;;;594674;241;24022;-75
2023/09/10 05:03:33;;;;;;;13.50;11.70;;;15.50;99.90;15.00;100698;;;;586780;240;23962;-76
2023/09/10 05:06:05;;;;;;;18.40;12.10;;;15.60;99.90;15.10;100699;;;;586747;240;23974;-76
2023/09/10 05:08:29;;;;;;;13.67;11.80;;;15.70;99.90;15.20;100696;;;;586130;240;24040;-76
2023/09/10 05:10:57;;;;;;;17.23;12.20;;;15.80;99.90;15.40;100701;;;;586387;240;24001;-76
2023/09/10 05:13:25;;;;;;;14.60;12.13;;;16.00;99.90;16.30;100701;;;;586514;241;23970;-76
2023/09/10 05:15:57;;;;;;;13.60;11.53;;;16.70;99.90;17.70;100702;;;;586363;241;24006;-76
2023/09/10 05:18:27;;;;;;;13.73;11.03;;;19.60;99.90;19.20;100702;;;;586567;241;23985;-76
2023/09/10 05:20:55;;;;;;;11.37;10.27;;;19.50;99.90;20.70;100708;;;;586408;241;23946;-76
2023/09/10 05:23:23;;;;;;;12.27;10.37;;;21.00;99.90;22.00;100709;;;;586196;241;24011;-77
2023/09/10 05:25:55;;;;;;;10.80;9.57;;;22.40;99.90;23.20;100708;;;;586145;241;24037;-76
2023/09/10 05:28:19;;;;;;;13.87;10.17;;;23.60;99.90;24.20;100709;;;;585585;241;23011;-77
2023/09/10 05:30:47;;;;;;;14.57;10.10;;;24.60;99.90;25.20;100697;;;;586272;241;23027;-76
2023/09/10 05:33:15;;;;;;;10.83;9.90;;;26.60;99.90;26.20;100700;;;;595096;240;23002;-76
2023/09/10 05:35:44;;;;;;;11.37;10.23;;;26.50;99.90;27.00;100697;;;;595002;240;22977;-76
2023/09/10 05:38:11;;;;;;;12.57;10.77;;;27.40;99.90;27.70;100691;;;;595098;240;22972;-77
2023/09/10 05:40:39;;;;;;;12.88;10.05;;;28.20;99.90;28.40;100687;;;;585592;241;22976;-76
2023/09/10 05:43:07;;;;;;;13.23;10.13;;;28.90;99.90;29.10;100691;;;;586029;241;22996;-77
2023/09/10 05:45:35;;;;;;;11.52;10.38;;;29.60;99.90;29.70;100698;;;;585971;241;23054;-76
2023/09/10 05:48:03;;;;;;;14.20;9.95;;;30.20;99.00;30.40;100697;;;;585945;241;22997;-76
2023/09/10 05:50:32;;;;;;;10.80;9.88;;;31.50;93.70;31.10;100704;;;;585570;241;22989;-77
2023/09/10 05:53:00;;;;;;;10.82;9.82;;;31.40;93.60;31.70;100699;;;;586003;241;23031;-77
2023/09/10 05:55:28;;;;;;;10.68;9.77;;;32.10;91.50;32.30;100701;;;;586005;241;23043;-77
2023/09/10 05:57:55;;;;;;;9.68;8.80;;;32.70;88.30;32.70;100692;;;;585935;241;23008;-77
2023/09/10 06:00:23;;;;;;;10.38;9.38;;;33.20;83.20;33.10;100708;;;;585991;241;23085;-77
2023/09/10 06:02:51;;;;;;;12.77;9.38;;;33.60;80.30;33.60;100703;;;;585595;241;22977;-77
2023/09/10 06:05:19;;;;;;;11.55;8.68;;;34.10;78.20;34.20;100701;;;;585578;241;22982;-77
2023/09/10 06:07:47;;;;;;;9.20;8.50;;;34.60;76.00;34.60;100698;;;;585751;241;23043;-76
2023/09/10 06:10:15;;;;;;;9.75;8.90;;;35.00;73.10;35.10;100707;;;;585573;241;22981;-76
2023/09/10 06:12:44;;;;;;;10.25;9.20;;;36.20;68.10;35.80;100711;;;;585936;241;22983;-77
2023/09/10 06:15:12;;;;;;;11.63;9.23;;;36.10;68.00;36.40;100711;;;;595884;239;22984;-77
2023/09/10 06:17:40;;;;;;;10.30;9.50;;;36.70;66.40;37.10;100713;;;;587050;240;22973;-77
2023/09/10 06:20:12;;;;;;;10.13;9.25;;;37.80;60.90;37.50;100715;;;;586884;240;23004;-77
2023/09/10 06:22:36;;;;;;;9.65;8.80;;;37.80;60.90;37.90;100711;;;;595005;240;22973;-76
2023/09/10 06:25:04;;;;;;;10.60;9.70;;;38.20;59.00;37.90;100711;;;;586484;241;24017;-77
2023/09/10 06:27:32;;;;;;;10.02;9.13;;;38.30;58.60;38.10;100711;;;;586431;241;23041;-77
2023/09/10 06:30:00;;;;;;;10.48;9.48;;;38.50;57.30;38.20;100716;;;;586551;241;22992;-78
2023/09/10 06:32:29;;;;;;;11.57;9.27;;;38.80;57.20;38.40;100718;;;;586316;241;22982;-76
2023/09/10 06:34:57;;;;;;;10.82;9.85;;;38.80;57.20;38.80;100717;;;;585785;241;22988;-77
2023/09/10 06:37:25;;;;;;;10.40;9.48;;;39.20;56.10;39.00;100717;;;;585882;241;23017;-77
2023/09/10 06:39:55;;;;;;;10.32;9.13;;;39.40;55.30;39.30;100722;;;;586144;241;22984;-77
2023/09/10 06:42:21;;;;;;;11.10;10.00;;;39.60;55.30;39.70;100720;;;;585525;241;22976;-77
2023/09/10 06:44:48;;;;;;;11.23;9.95;;;40.00;55.20;40.20;100721;;;;585861;241;23014;-76
2023/09/10 06:47:16;;;;;;;10.48;9.30;;;40.40;54.30;40.80;100722;;;;585737;241;23031;-77
2023/09/10 06:49:44;;;;;;;11.38;10.27;;;41.00;52.90;41.20;100727;;;;585796;241;22998;-77
2023/09/10 06:52:12;;;;;;;10.80;9.70;;;41.40;52.10;41.40;100727;;;;585546;241;23999;-76
2023/09/10 06:54:40;;;;;;;10.25;9.25;;;41.70;51.90;41.80;100729;;;;585690;241;22979;-77
2023/09/10 06:57:08;;;;;;;11.73;10.02;;;42.00;50.70;42.30;100727;;;;585620;241;23009;-77
2023/09/10 06:59:36;;;;;;;11.02;9.90;;;42.50;50.40;42.70;100727;;;;585480;241;22976;-77
2023/09/10 07:02:04;;;;;;;10.70;9.68;;;42.80;50.10;43.10;100736;;;;585659;241;22962;-77
2023/09/10 07:04:32;;;;;;;10.27;9.35;;;43.20;49.10;43.60;100740;;;;585420;241;23044;-78
2023/09/10 07:07:00;;;;;;;11.43;10.30;;;43.70;48.60;44.00;100735;;;;585981;241;23011;-77
2023/09/10 07:09:28;;;;;;;10.50;9.70;;;44.10;47.40;44.30;100731;;;;585924;241;22992;-77
2023/09/10 07:11:56;;;;;;;9.80;8.90;;;44.50;47.60;44.60;100738;;;;585963;241;23050;-77
2023/09/10 07:14:23;;;;;;;9.98;8.95;;;44.70;46.70;44.90;100732;;;;585648;241;23025;-77
2023/09/10 07:16:51;;;;;;;9.90;9.20;;;45.00;46.00;45.10;100745;;;;585529;241;22974;-77
2023/09/10 07:19:19;;;;;;;9.88;8.70;;;45.30;45.90;45.40;100744;;;;585693;241;22998;-77
2023/09/10 07:21:47;;;;;;;10.48;9.43;;;45.50;45.60;45.80;100744;;;;585596;241;22989;-77
2023/09/10 07:24:15;;;;;;;10.15;9.20;;;45.90;45.20;46.30;100751;;;;580615;241;34283;-76
2023/09/10 07:26:47;;;;;;;10.85;8.82;;;46.30;44.50;46.50;100749;;;;586834;240;24005;-77
2023/09/10 07:29:15;;;;;;;9.57;8.65;;;46.60;44.20;46.80;100755;;;;586400;240;23007;-78
2023/09/10 07:31:39;;;;;;;9.98;8.85;;;46.80;44.00;47.20;100754;;;;586156;240;23052;-79
2023/09/10 07:34:07;;;;;;;9.73;9.02;;;47.30;43.30;47.50;100748;;;;586306;240;24032;-78
2023/09/10 07:36:35;;;;;;;9.90;9.15;;;47.60;43.10;47.70;100753;;;;585956;241;22965;-78
2023/09/10 07:39:03;;;;;;;10.40;9.40;;;47.80;42.40;47.80;100748;;;;586133;241;23024;-78
2023/09/10 07:41:32;;;;;;;9.52;8.73;;;48.00;42.60;48.10;100749;;;;586009;241;23108;-77
2023/09/10 07:43:58;;;;;;;10.15;9.20;;;48.30;42.60;48.30;100752;;;;586361;241;23007;-77
2023/09/10 07:46:26;;;;;;;9.80;8.93;;;48.60;42.30;48.60;100752;;;;586124;241;22995;-77
2023/09/10 07:48:54;;;;;;;8.95;8.25;;;48.80;41.60;48.80;100748;;;;586219;241;22996;-77
2023/09/10 07:51:23;;;;;;;11.27;9.05;;;49.20;42.40;48.90;100749;;;;586249;241;22987;-77
2023/09/10 07:53:52;;;;;;;11.68;8.88;;;49.30;41.20;49.00;100750;;;;586273;241;23050;-77
2023/09/10 07:56:20;;;;;;;9.68;8.88;;;49.30;41.20;49.40;100741;;;;586237;241;23015;-77
2023/09/10 07:58:47;;;;;;;10.13;9.05;;;49.60;41.10;49.60;100751;;;;586247;241;22990;-77
2023/09/10 08:01:16;;;;;;;9.20;8.55;;;50.10;40.70;49.90;100743;;;;586153;241;24012;-77
2023/09/10 08:03:44;;;;;;;10.50;9.63;;;50.00;40.60;50.00;100747;;;;585839;241;23029;-78
2023/09/10 08:06:13;;;;;;;10.45;9.40;;;50.20;39.70;49.70;100750;;;;585601;241;22976;-77
2023/09/10 08:08:41;;;;;;;12.13;9.07;;;50.20;40.20;49.60;100742;;;;585634;241;23031;-77
2023/09/10 08:11:10;;;;;;;10.98;9.93;;;50.30;39.30;49.90;100745;;;;585433;241;22993;-77
2023/09/10 08:13:38;;;;;;;10.55;9.70;;;50.30;39.20;49.30;100744;;;;585974;241;23003;-76
2023/09/10 08:16:06;;;;;;;10.38;9.30;;;50.00;39.40;48.90;100749;;;;586008;241;22979;-77
2023/09/10 08:18:34;;;;;;;10.52;9.30;;;49.60;40.20;49.30;100740;;;;586013;241;23065;-77
2023/09/10 08:21:02;;;;;;;10.35;9.45;;;49.80;40.60;49.30;100743;;;;585964;241;23024;-77
2023/09/10 08:23:30;;;;;;;10.77;9.75;;;49.90;39.90;49.50;100746;;;;586018;241;24159;-77
2023/09/10 08:25:58;;;;;;;10.27;9.40;;;50.20;39.70;49.40;100740;;;;585967;241;23043;-77
2023/09/10 08:28:26;;;;;;;11.30;10.20;;;50.20;39.40;48.80;100742;;;;585954;241;23086;-77
2023/09/10 08:30:54;;;;;;;12.98;9.57;;;49.80;39.60;48.90;100743;;;;586049;241;22985;-77
2023/09/10 08:33:24;;;;;;;11.02;10.10;;;49.70;39.90;48.40;100746;;;;585896;241;23043;-78
2023/09/10 08:35:49;;;;;;;11.45;9.25;;;49.50;39.80;48.00;100746;;;;594752;241;22985;-77
2023/09/10 08:38:17;;;;;;;12.37;9.15;;;49.10;40.80;48.60;100737;;;;586725;240;22997;-77
2023/09/10 08:41:00;;;;;;;10.18;9.35;;;49.30;40.40;48.70;100735;;;;586861;240;23016;-76
2023/09/10 08:43:36;;;;;;;11.10;10.20;;;49.50;41.00;48.70;100747;;;;586807;240;22984;-76
2023/09/10 08:46:05;;;;;;;10.07;9.27;;;49.80;39.90;48.90;100747;;;;586045;241;23033;-77
2023/09/10 08:48:34;;;;;;;10.38;9.38;;;50.10;40.10;49.20;100744;;;;586235;241;22984;-77
2023/09/10 08:51:02;;;;;;;10.93;9.93;;;50.00;39.90;48.90;100740;;;;586458;241;24041;-77
2023/09/10 08:53:33;;;;;;;9.93;9.23;;;50.10;39.30;48.80;100742;;;;586480;241;23043;-76
2023/09/10 08:56:01;;;;;;;9.88;8.98;;;50.20;39.40;49.30;100739;;;;585827;241;22976;-78
2023/09/10 08:58:26;;;;;;;10.45;9.32;;;50.20;39.30;49.10;100735;;;;585801;241;22986;-77
2023/09/10 09:00:54;;;;;;;12.93;9.77;;;50.20;39.10;49.00;100734;;;;586156;241;22962;-76
2023/09/10 09:03:25;;;;;;;10.38;9.57;;;50.20;39.20;49.30;100731;;;;586125;241;24006;-76
2023/09/10 09:05:51;;;;;;;9.98;8.95;;;50.60;39.30;49.50;100726;;;;585578;241;23025;-77
2023/09/10 09:08:20;;;;;;;10.40;9.60;;;50.90;38.60;49.80;100738;;;;585692;241;22982;-78
2023/09/10 09:10:48;;;;;;;9.88;8.02;;;51.00;38.40;49.80;100722;;;;585532;241;22974;-77
2023/09/10 09:13:16;;;;;;;10.23;9.30;;;51.00;38.30;50.00;100730;;;;585638;241;23103;-76
2023/09/10 09:15:48;;;;;;;10.27;8.60;;;51.20;38.20;49.80;100722;;;;585978;241;23001;-77
2023/09/10 09:18:17;;;;;;;9.43;8.52;;;50.60;38.20;48.90;100727;;;;594294;241;22997;-77
2023/09/10 09:20:42;;;;;;;13.27;9.68;;;50.00;38.50;48.20;100736;;;;585455;241;22988;-77
2023/09/10 09:23:19;;;;;;;9.40;8.50;;;50.00;38.40;47.90;100729;;;;585610;241;24025;-76
2023/09/10 09:25:47;;;;;;;9.00;8.30;;;49.30;39.40;47.60;100732;;;;585022;241;23067;-77
2023/09/10 09:28:15;;;;;;;9.30;8.40;;;49.30;39.40;47.90;100733;;;;585868;241;23017;-77
2023/09/10 09:30:43;;;;;;;10.75;8.68;;;49.30;39.30;48.00;100730;;;;585814;241;22969;-77
2023/09/10 09:33:12;;;;;;;8.77;7.85;;;49.60;39.80;48.30;100730;;;;585910;241;23220;-77
2023/09/10 09:35:40;;;;;;;9.48;8.65;;;49.60;39.30;48.50;100723;;;;585985;241;23087;-77
2023/09/10 09:38:13;;;;;;;8.88;8.05;;;50.00;38.30;48.10;100721;;;;585998;241;23008;-77
2023/09/10 09:40:38;;;;;;;8.77;7.85;;;49.80;38.50;47.90;100721;;;;585409;241;23011;-77
2023/09/10 09:43:09;;;;;;;8.95;8.05;;;49.60;38.80;47.80;100718;;;;585692;241;22992;-76
2023/09/10 09:45:37;;;;;;;13.62;8.50;;;49.60;38.40;47.30;100721;;;;585767;241;22972;-76
2023/09/10 09:48:05;;;;;;;8.95;8.25;;;49.10;39.10;47.90;100711;;;;585961;241;22981;-76
2023/09/10 09:50:33;;;;;;;9.23;8.05;;;49.40;38.80;48.40;100725;;;;596253;239;22987;-76
2023/09/10 09:53:02;;;;;;;9.90;9.00;;;49.90;38.60;48.20;100712;;;;587017;240;22997;-76
2023/09/10 09:55:29;;;;;;;9.18;8.25;;;50.00;38.10;47.40;100709;;;;586748;240;22981;-77
2023/09/10 09:57:57;;;;;;;8.50;7.72;;;49.50;38.40;47.20;100714;;;;586671;241;22965;-77
2023/09/10 10:00:25;;;;;;;8.50;7.78;;;49.30;38.90;47.10;100707;;;;586498;241;22977;-77
2023/09/10 10:02:53;;;;;;;10.32;7.62;;;49.30;38.80;47.20;100707;;;;595709;240;23012;-76
2023/09/10 10:05:21;;;;;;;9.32;8.38;;;49.30;38.60;47.00;100707;;;;586129;241;23022;-77
2023/09/10 10:07:50;;;;;;;8.10;7.47;;;49.10;38.80;46.30;100705;;;;586235;241;22992;-77
2023/09/10 10:10:17;;;;;;;7.97;7.37;;;48.60;39.20;45.20;100702;;;;585770;241;22977;-77
2023/09/10 10:12:47;;;;;;;8.88;7.90;;;47.70;40.10;44.30;100701;;;;585851;241;22974;-77
2023/09/10 10:15:15;;;;;;;8.55;7.85;;;46.60;40.60;42.10;100702;;;;586253;241;22971;-76
2023/09/10 10:17:46;;;;;;;8.73;7.87;;;44.60;42.20;40.40;100686;;;;586265;241;23019;-77
2023/09/10 10:20:12;;;;;;;9.10;7.87;;;40.90;46.70;38.90;100687;;;;585864;241;22973;-77
2023/09/10 10:22:40;;;;;;;9.18;7.80;;;40.80;46.50;37.90;100692;;;;586099;241;24002;-77
2023/09/10 10:25:08;;;;;;;10.10;9.18;;;39.50;48.30;36.80;100688;;;;586133;241;23010;-76
2023/09/10 10:27:39;;;;;;;6.62;6.03;;;37.30;50.20;36.10;100688;;;;585938;241;22982;-77
2023/09/10 10:30:05;;;;;;;6.50;6.00;;;37.20;50.10;35.50;100696;;;;585884;241;22983;-77
2023/09/10 10:32:44;;;;;;;6.87;5.82;;;36.50;51.00;34.90;100688;;;;586107;241;23082;-77
2023/09/10 10:35:12;;;;;;;5.68;5.25;;;35.70;51.00;34.30;100683;;;;586000;241;22967;-76
2023/09/10 10:37:52;;;;;;;6.43;5.82;;;35.10;52.90;33.80;100680;;;;595360;237;22988;-76
2023/09/10 10:40:20;;;;;;;6.65;6.03;;;34.50;53.30;33.40;100680;;;;585866;241;22976;-76
2023/09/10 10:43:13;;;;;;;5.95;5.43;;;33.50;55.20;32.90;100685;;;;585236;241;22994;-76
2023/09/10 10:45:43;;;;;;;7.05;5.65;;;33.40;55.20;32.40;100675;;;;582911;241;23977;-76
2023/09/10 10:48:08;;;;;;;5.87;5.40;;;32.90;55.60;31.90;100674;;;;585471;240;23007;-77
2023/09/10 10:50:37;;;;;;;8.25;5.97;;;31.90;56.50;31.50;100680;;;;585569;241;23050;-75
2023/09/10 10:53:20;;;;;;;6.60;6.00;;;31.80;56.40;31.00;100674;;;;585728;241;22992;-76
2023/09/10 10:55:51;;;;;;;7.50;5.95;;;31.50;57.60;30.60;100678;;;;585803;241;22974;-76
2023/09/10 10:58:19;;;;;;;6.37;5.50;;;31.00;57.80;30.30;100672;;;;585687;241;22970;-76
2023/09/10 11:00:53;;;;;;;6.32;5.82;;;30.70;58.50;30.10;100673;;;;586174;240;23000;-76
2023/09/10 11:03:21;;;;;;;8.43;6.45;;;30.20;59.80;29.90;100676;;;;586946;240;22984;-75
2023/09/10 11:06:15;;;;;;;6.97;5.60;;;30.10;59.90;29.60;100679;;;;595888;240;23982;-74
2023/09/10 11:08:41;;;;;;;6.68;6.05;;;29.90;60.70;29.40;100674;;;;586622;240;22985;-75
2023/09/10 11:11:27;;;;;;;7.20;5.80;;;29.70;61.30;29.20;100667;;;;595199;239;23063;-76